ADDS METAR Data INFO
IDs: Format: Raw Decoded Include TAF

Data at: 0108 UTC 21 Oct 2017

PANA 210056Z AUTO 25006KT 1 3/4SM -SN FEW013 BKN020 OVC027 M01/M04 A2926 RMK AO2 VIS 3/4V5 UPB27E29SNB29 SLP907 P0000 T10111039 FZRANO
PANA 210052Z AUTO VRB05KT 3SM -SN FEW013 BKN024 OVC029 M01/M04 A2926 RMK AO2 UPB27E29SNB29 P0000 FZRANO
PANA 210035Z AUTO 26007KT 2SM -SN FEW013 SCT021 BKN028 M01/M04 A2926 RMK AO2 UPB27E29SNB29 P0000 FZRANO
PANA 202356Z AUTO 20009KT 10SM BKN033 M01/M04 A2926 RMK AO2 SLP907 60000 T10061039 10000 21044 56010 FZRANO
PANA 202256Z AUTO 19008KT 10SM BKN018 OVC025 00/M03 A2927 RMK AO2 SLP911 T00001033 FZRANO
PANA 202241Z AUTO 19009KT 10SM FEW015 BKN022 OVC035 M01/M02 A2928 RMK AO2 FZRANO
PANA 202156Z AUTO 20007KT 9SM FEW014 OVC039 M01/M02 A2928 RMK AO2 SNB36E54 SLP913 P0000 T10111022 FZRANO
PANA 202056Z AUTO 21005KT 10SM OVC037 M03/M03 A2929 RMK AO2 SLP917 T10281033 58002 FZRANO
PANA 201956Z AUTO 18009KT 10SM OVC033 M03/M04 A2929 RMK AO2 SLP918 T10331044 FZRANO
PANA 201927Z AUTO 18004KT 10SM FEW005 OVC033 M03/M04 A2930 RMK AO2 FZRANO
PANA 201856Z AUTO 19006KT 10SM OVC031 M04/M04 A2929 RMK AO2 SLP919 T10391044 FZRANO
PANA 201847Z AUTO 21003KT 10SM BKN029 M04/M05 A2930 RMK AO2 FZRANO
PANA 201756Z AUTO 19007KT 10SM SCT037 M04/M05 A2930 RMK AO2 SLP921 T10441050 11033 21050 56007 FZRANO
PANA 201656Z AUTO 20005KT 10SM SCT002 BKN037 M04/M05 A2930 RMK AO2 SLP922 T10441050 FZRANO
PANA 201556Z AUTO 26003KT 10SM OVC039 M04/M05 A2931 RMK AO2 SLP924 T10391050 FZRANO
PANA 201456Z AUTO 00000KT 10SM OVC039 M05/M06 A2932 RMK AO2 SLP927 T10501056 56014 FZRANO
PANA 201356Z AUTO 21005KT 10SM BKN041 M04/M05 A2933 RMK AO2 SLP932 T10441050 FZRANO
PANA 201256Z AUTO 23004KT 10SM OVC047 M04/M05 A2934 RMK AO2 SLP935 T10391050 FZRANO
PANA 201156Z AUTO 23003KT 10SM OVC047 M03/M04 A2936 RMK AO2 SLP941 T10331044 11028 21056 58016 FZRANO
PANA 201056Z AUTO 21003KT 10SM OVC045 M04/M04 A2937 RMK AO2 SLP946 T10391044 FZRANO
PANA 200956Z AUTO 23004KT 10SM BKN049 BKN065 M05/M06 A2939 RMK AO2 SLP953 T10501056 FZRANO
PANA 200856Z AUTO 21004KT 10SM CLR M04/M05 A2941 RMK AO2 SLP957 T10441050 400171044 56010 FZRANO
PANA 200756Z AUTO 22005KT 10SM FEW004 M03/M04 A2941 RMK AO2 SLP959 T10331039 FZRANO
PANA 200744Z AUTO 20006KT 10SM FEW004 M03/M04 A2941 RMK AO2 FZRANO
PANA 200656Z AUTO 20005KT 10SM CLR M03/M04 A2942 RMK AO2 SLP963 T10331039 FZRANO
PANA 200556Z AUTO 24005KT 10SM CLR M03/M04 A2944 RMK AO2 SLP967 60000 T10331039 10011 21039 58017 FZRANO
PANA 200456Z AUTO 23004KT 10SM CLR M03/M04 A2946 RMK AO2 SNB00E23 SLP974 P0000 T10331044 FZRANO
PANA 200406Z AUTO 00000KT 6SM -SN BR FEW006 BKN044 M03/M04 A2947 RMK AO2 SNB00 P0000 FZRANO
PANA 200356Z AUTO 24004KT 10SM FEW010 BKN044 M02/M04 A2947 RMK AO2 SLP980 T10221039 FZRANO
PANA 200345Z AUTO 25004KT 10SM FEW010 BKN044 M02/M04 A2947 RMK AO2 FZRANO
PANA 200256Z AUTO 29005KT 10SM OVC010 M01/M03 A2949 RMK AO2 SNB0159E11 SLP985 P0000 60000 T10111028 56015 FZRANO
PANA 200156Z AUTO 28003KT 9SM BKN010 OVC015 M01/M03 A2950 RMK AO2 UPB40E56SNB42E52 CIG 005V013 SLP989 P0000 T10111028 FZRANO
PANA 200056Z AUTO 26005KT 10SM SCT011 OVC041 M01/M02 A2951 RMK AO2 SLP994 T10061022 FZRANO
PANA 200039Z AUTO 28006KT 10SM BKN011 OVC045 00/M02 A2952 RMK AO2 FZRANO
PANA 192356Z AUTO 26006KT 10SM FEW007 BKN049 01/M02 A2953 RMK AO2 SLP000 60000 T00111017 10017 21039 58018 FZRANO
PANA 192343Z AUTO 00000KT 10SM SCT005 SCT049 01/M01 A2954 RMK AO2 FZRANO
PANA 192256Z AUTO 28004KT 9SM BKN005 M01/M02 A2955 RMK AO2 CIG 001V007 SLP006 T10061022 FZRANO
PANA 192236Z AUTO 26005KT 10SM BKN005 00/M01 A2956 RMK AO2 FZRANO
PANA 192156Z AUTO 33003KT 10SM BKN003 00/M01 A2957 RMK AO2 SLP012 T00001011 FZRANO
PANA 192118Z AUTO VRB03KT 3SM BR OVC003 M01/M02 A2958 RMK AO2 FZRANO
PANA 192115Z AUTO 30003KT 1 1/4SM BR OVC003 M01/M02 A2958 RMK AO2 VIS 1/4V5 FZRANO
PANA 192056Z AUTO 30003KT 3/4SM BR OVC003 M01/M02 A2959 RMK AO2 SNB22E37 SLP018 P0000 60000 T10111022 58004 FZRANO
PANA 192051Z AUTO 31004KT 3/4SM BR OVC003 M02/M02 A2959 RMK AO2 SNB22E37 P0000 FZRANO
PANA 192039Z AUTO 33003KT 1 1/4SM BR OVC003 M02/M03 A2959 RMK AO2 VIS 3/4V5 SNB22E37 P0000 FZRANO
PANA 192032Z AUTO 30003KT 1SM -SN BR OVC003 M02/M03 A2959 RMK AO2 VIS 1/4V5 SNB22 P0000 FZRANO
PANA 192024Z AUTO 32003KT 1/2SM -SN FZFG OVC003 M02/M02 A2959 RMK AO2 SNB22 P0000 FZRANO
PANA 192021Z AUTO 32003KT 1SM BR OVC003 M02/M02 A2959 RMK AO2 VIS 1/2V5 FZRANO
PANA 192003Z AUTO 00000KT 2 1/2SM BR OVC003 M02/M02 A2959 RMK AO2 VIS 1 1/4V5 FZRANO
PANA 191956Z AUTO 00000KT 1 3/4SM BR OVC003 M02/M02 A2959 RMK AO2 SNE1858B33E43 SLP020 P0000 T10171022 FZRANO
PANA 191938Z AUTO 00000KT 3/4SM -SN BR OVC003 M03/M03 A2959 RMK AO2 SNE1858B33 P0000 FZRANO
PANA 191927Z AUTO 00000KT 1/2SM FZFG OVC003 M03/M03 A2959 RMK AO2 SNE1858 P0000 FZRANO
PANA 191856Z AUTO 00000KT 1/4SM -SN FZFG OVC003 M04/M04 A2960 RMK AO2 SNB1758E16B43 SLP023 P0000 T10391044 FZRANO
PANA 191840Z AUTO 04003KT 1/4SM FZFG OVC003 M04/M04 A2960 RMK AO2 SNB1758E16 P0000 FZRANO
PANA 191826Z AUTO VRB03KT 1/2SM FZFG OVC003 M04/M04 A2960 RMK AO2 SNB1758E16 P0000 FZRANO
PANA 191756Z AUTO 34003KT 1/2SM FZFG OVC003 M04/M04 A2960 RMK AO2 SNB33E53 SLP022 P0000 60000 T10391044 11017 21039 55000 FZRANO
PANA 191731Z AUTO 32003KT 1/4SM FZFG OVC003 M04/M04 A2960 RMK AO2 FZRANO
PANA 191721Z AUTO 32004KT 1/2SM FZFG OVC003 M04/M04 A2960 RMK AO2 FZRANO
PANA 191709Z AUTO 33004KT 1SM BR OVC003 M03/M04 A2960 RMK AO2 FZRANO
PANA 191653Z AUTO 35004KT 1/2SM FZFG OVC003 M03/M04 A2960 RMK AO2 SNE21 P0000 FZRANO
PANA 191637Z AUTO 33004KT 1SM BR OVC003 M03/M03 A2960 RMK AO2 SNE21 P0000 FZRANO
PANA 191633Z AUTO 34005KT 2SM BR OVC003 M03/M03 A2960 RMK AO2 SNE21 P0000 FZRANO
PANA 191611Z AUTO 34003KT 8SM -SN OVC005 M03/M03 A2960 RMK AO2 P0000 FZRANO
PANA 191556Z AUTO 33005KT 3SM -SN BR BKN003 BKN007 M03/M03 A2960 RMK AO2 SNB21 SLP022 P0000 T10281033 FZRANO
PANA 191547Z AUTO 32004KT 3SM -SN BR OVC003 M02/M03 A2960 RMK AO2 SNB21 P0000 FZRANO
PANA 191540Z AUTO 33008KT 2 1/2SM -SN BR OVC003 M02/M03 A2960 RMK AO2 SNB21 P0000 FZRANO
PANA 191527Z AUTO 31009KT 6SM -SN BR OVC003 M02/M03 A2960 RMK AO2 SNB21 P0000 FZRANO
PANA 191514Z AUTO 31007KT 2SM BR OVC003 M02/M02 A2960 RMK AO2 VIS 1 1/2V3 FZRANO
PANA 191456Z AUTO 31010KT 3SM BR OVC003 M02/M02 A2960 RMK AO2 SLP024 T10171022 58004 FZRANO
PANA 191448Z AUTO 33008KT 2 1/2SM BR OVC003 M02/M02 A2961 RMK AO2 FZRANO
PANA 191432Z AUTO 34007KT 1 1/2SM BR OVC003 M02/M02 A2961 RMK AO2 FZRANO
PANA 191424Z AUTO 34006KT 2SM BR OVC003 M02/M02 A2961 RMK AO2 FZRANO
PANA 191356Z AUTO 31006KT 10SM OVC005 M02/M03 A2961 RMK AO2 SLP026 T10221028 FZRANO
PANA 191339Z AUTO 30004KT 10SM OVC005 M03/M03 A2961 RMK AO2 FZRANO
PANA 191319Z AUTO 29005KT 10SM BKN003 M03/M04 A2961 RMK AO2 FZRANO